sensor_id;sensor_type;location;lat;lon;timestamp;P1;durP1;ratioP1;P2;durP2;ratioP2
70228;SDS011;57617;51.988;5.854;2023-07-29T00:00:42;17.27;;;9.73;;
70228;SDS011;57617;51.988;5.854;2023-07-29T00:03:08;18.73;;;8.93;;
70228;SDS011;57617;51.988;5.854;2023-07-29T00:05:33;19.23;;;8.85;;
70228;SDS011;57617;51.988;5.854;2023-07-29T00:07:59;19.88;;;8.63;;
70228;SDS011;57617;51.988;5.854;2023-07-29T00:10:24;16.13;;;8.57;;
70228;SDS011;57617;51.988;5.854;2023-07-29T00:12:50;16.92;;;8.52;;
70228;SDS011;57617;51.988;5.854;2023-07-29T00:15:16;17.83;;;7.85;;
70228;SDS011;57617;51.988;5.854;2023-07-29T00:17:41;14.70;;;7.57;;
70228;SDS011;57617;51.988;5.854;2023-07-29T00:20:07;14.35;;;7.13;;
70228;SDS011;57617;51.988;5.854;2023-07-29T00:22:32;12.75;;;6.72;;
70228;SDS011;57617;51.988;5.854;2023-07-29T00:24:58;11.88;;;6.07;;
70228;SDS011;57617;51.988;5.854;2023-07-29T00:27:24;11.18;;;5.72;;
70228;SDS011;57617;51.988;5.854;2023-07-29T00:29:49;12.20;;;5.50;;
70228;SDS011;57617;51.988;5.854;2023-07-29T00:32:15;12.82;;;4.75;;
70228;SDS011;57617;51.988;5.854;2023-07-29T00:34:40;9.73;;;4.80;;
70228;SDS011;57617;51.988;5.854;2023-07-29T00:37:05;6.22;;;3.97;;
70228;SDS011;57617;51.988;5.854;2023-07-29T00:39:31;8.32;;;4.05;;
70228;SDS011;57617;51.988;5.854;2023-07-29T00:41:59;13.63;;;4.30;;
70228;SDS011;57617;51.988;5.854;2023-07-29T00:44:24;9.05;;;4.30;;
70228;SDS011;57617;51.988;5.854;2023-07-29T00:46:50;5.93;;;3.58;;
70228;SDS011;57617;51.988;5.854;2023-07-29T00:49:18;8.10;;;4.00;;
70228;SDS011;57617;51.988;5.854;2023-07-29T00:51:45;9.18;;;4.10;;
70228;SDS011;57617;51.988;5.854;2023-07-29T00:54:11;10.13;;;3.88;;
70228;SDS011;57617;51.988;5.854;2023-07-29T00:56:36;7.22;;;3.67;;
70228;SDS011;57617;51.988;5.854;2023-07-29T00:59:02;6.63;;;3.35;;
70228;SDS011;57617;51.988;5.854;2023-07-29T01:01:29;7.68;;;3.67;;
70228;SDS011;57617;51.988;5.854;2023-07-29T01:03:54;8.65;;;3.65;;
70228;SDS011;57617;51.988;5.854;2023-07-29T01:09:04;6.22;;;3.17;;
70228;SDS011;57617;51.988;5.854;2023-07-29T01:11:41;8.40;;;3.30;;
70228;SDS011;57617;51.988;5.854;2023-07-29T01:17:03;5.30;;;3.13;;
70228;SDS011;57617;51.988;5.854;2023-07-29T01:19:40;6.43;;;3.35;;
70228;SDS011;57617;51.988;5.854;2023-07-29T01:22:10;6.35;;;3.30;;
70228;SDS011;57617;51.988;5.854;2023-07-29T01:24:37;8.75;;;3.80;;
70228;SDS011;57617;51.988;5.854;2023-07-29T01:27:03;8.25;;;4.85;;
70228;SDS011;57617;51.988;5.854;2023-07-29T01:29:30;8.05;;;4.63;;
70228;SDS011;57617;51.988;5.854;2023-07-29T01:31:56;10.40;;;5.00;;
70228;SDS011;57617;51.988;5.854;2023-07-29T01:34:36;11.57;;;5.93;;
70228;SDS011;57617;51.988;5.854;2023-07-29T01:37:14;8.27;;;5.32;;
70228;SDS011;57617;51.988;5.854;2023-07-29T01:39:47;13.13;;;6.25;;
70228;SDS011;57617;51.988;5.854;2023-07-29T01:42:15;9.77;;;5.55;;
70228;SDS011;57617;51.988;5.854;2023-07-29T01:44:41;9.68;;;4.70;;
70228;SDS011;57617;51.988;5.854;2023-07-29T01:47:07;7.97;;;4.13;;
70228;SDS011;57617;51.988;5.854;2023-07-29T01:49:33;10.75;;;4.85;;
70228;SDS011;57617;51.988;5.854;2023-07-29T01:51:58;8.82;;;4.85;;
70228;SDS011;57617;51.988;5.854;2023-07-29T01:54:24;10.70;;;5.07;;
70228;SDS011;57617;51.988;5.854;2023-07-29T01:56:49;17.50;;;6.05;;
70228;SDS011;57617;51.988;5.854;2023-07-29T01:59:16;12.65;;;5.88;;
70228;SDS011;57617;51.988;5.854;2023-07-29T02:01:41;11.93;;;6.03;;
70228;SDS011;57617;51.988;5.854;2023-07-29T02:04:07;15.70;;;6.47;;
70228;SDS011;57617;51.988;5.854;2023-07-29T02:06:33;12.95;;;8.13;;
70228;SDS011;57617;51.988;5.854;2023-07-29T02:08:58;16.48;;;7.97;;
70228;SDS011;57617;51.988;5.854;2023-07-29T02:11:23;14.30;;;7.07;;
70228;SDS011;57617;51.988;5.854;2023-07-29T02:13:52;14.48;;;7.53;;
70228;SDS011;57617;51.988;5.854;2023-07-29T02:16:18;14.63;;;8.20;;
70228;SDS011;57617;51.988;5.854;2023-07-29T02:18:44;14.32;;;6.38;;
70228;SDS011;57617;51.988;5.854;2023-07-29T02:21:09;15.77;;;8.40;;
70228;SDS011;57617;51.988;5.854;2023-07-29T02:23:34;18.70;;;10.38;;
70228;SDS011;57617;51.988;5.854;2023-07-29T02:26:00;20.83;;;10.73;;
70228;SDS011;57617;51.988;5.854;2023-07-29T02:28:25;21.50;;;11.55;;
70228;SDS011;57617;51.988;5.854;2023-07-29T02:31:08;23.52;;;12.18;;
70228;SDS011;57617;51.988;5.854;2023-07-29T02:33:46;21.25;;;11.25;;
70228;SDS011;57617;51.988;5.854;2023-07-29T02:36:12;21.38;;;12.05;;
70228;SDS011;57617;51.988;5.854;2023-07-29T02:38:39;21.67;;;11.95;;
70228;SDS011;57617;51.988;5.854;2023-07-29T02:41:05;22.40;;;11.38;;
70228;SDS011;57617;51.988;5.854;2023-07-29T02:43:30;22.75;;;11.45;;
70228;SDS011;57617;51.988;5.854;2023-07-29T02:45:55;21.38;;;11.23;;
70228;SDS011;57617;51.988;5.854;2023-07-29T02:48:21;20.45;;;11.15;;
70228;SDS011;57617;51.988;5.854;2023-07-29T02:50:46;21.33;;;11.05;;
70228;SDS011;57617;51.988;5.854;2023-07-29T02:53:11;21.33;;;10.80;;
70228;SDS011;57617;51.988;5.854;2023-07-29T02:55:40;21.98;;;10.60;;
70228;SDS011;57617;51.988;5.854;2023-07-29T02:58:05;19.77;;;10.88;;
70228;SDS011;57617;51.988;5.854;2023-07-29T03:00:31;21.08;;;10.63;;
70228;SDS011;57617;51.988;5.854;2023-07-29T03:02:57;18.25;;;10.05;;
70228;SDS011;57617;51.988;5.854;2023-07-29T03:05:23;18.00;;;10.52;;
70228;SDS011;57617;51.988;5.854;2023-07-29T03:07:48;21.27;;;10.65;;
70228;SDS011;57617;51.988;5.854;2023-07-29T03:10:13;20.17;;;10.75;;
70228;SDS011;57617;51.988;5.854;2023-07-29T03:12:40;20.73;;;10.18;;
70228;SDS011;57617;51.988;5.854;2023-07-29T03:15:05;20.73;;;10.25;;
70228;SDS011;57617;51.988;5.854;2023-07-29T03:17:31;18.15;;;10.05;;
70228;SDS011;57617;51.988;5.854;2023-07-29T03:19:56;18.95;;;10.02;;
70228;SDS011;57617;51.988;5.854;2023-07-29T03:22:22;18.67;;;10.07;;
70228;SDS011;57617;51.988;5.854;2023-07-29T03:24:47;17.50;;;9.77;;
70228;SDS011;57617;51.988;5.854;2023-07-29T03:27:12;20.25;;;10.50;;
70228;SDS011;57617;51.988;5.854;2023-07-29T03:29:39;17.88;;;9.82;;
70228;SDS011;57617;51.988;5.854;2023-07-29T03:32:04;18.70;;;10.15;;
70228;SDS011;57617;51.988;5.854;2023-07-29T03:34:30;18.85;;;10.10;;
70228;SDS011;57617;51.988;5.854;2023-07-29T03:36:55;19.73;;;9.88;;
70228;SDS011;57617;51.988;5.854;2023-07-29T03:39:20;15.07;;;8.85;;
70228;SDS011;57617;51.988;5.854;2023-07-29T03:41:46;17.58;;;9.02;;
70228;SDS011;57617;51.988;5.854;2023-07-29T03:44:11;17.33;;;9.27;;
70228;SDS011;57617;51.988;5.854;2023-07-29T03:46:36;15.73;;;9.13;;
70228;SDS011;57617;51.988;5.854;2023-07-29T03:49:02;15.82;;;8.40;;
70228;SDS011;57617;51.988;5.854;2023-07-29T03:51:28;15.27;;;7.63;;
70228;SDS011;57617;51.988;5.854;2023-07-29T03:53:53;13.32;;;7.63;;
70228;SDS011;57617;51.988;5.854;2023-07-29T03:56:18;13.70;;;7.20;;
70228;SDS011;57617;51.988;5.854;2023-07-29T03:58:45;10.80;;;6.72;;
70228;SDS011;57617;51.988;5.854;2023-07-29T04:01:10;19.85;;;7.53;;
70228;SDS011;57617;51.988;5.854;2023-07-29T04:03:36;12.85;;;7.57;;
70228;SDS011;57617;51.988;5.854;2023-07-29T04:06:01;13.35;;;7.28;;
70228;SDS011;57617;51.988;5.854;2023-07-29T04:08:26;15.50;;;7.40;;
70228;SDS011;57617;51.988;5.854;2023-07-29T04:10:52;12.45;;;6.93;;
70228;SDS011;57617;51.988;5.854;2023-07-29T04:13:17;12.43;;;6.68;;
70228;SDS011;57617;51.988;5.854;2023-07-29T04:15:43;11.73;;;6.53;;
70228;SDS011;57617;51.988;5.854;2023-07-29T04:18:08;9.20;;;6.05;;
70228;SDS011;57617;51.988;5.854;2023-07-29T04:20:33;14.68;;;6.20;;
70228;SDS011;57617;51.988;5.854;2023-07-29T04:22:59;12.88;;;6.50;;
70228;SDS011;57617;51.988;5.854;2023-07-29T04:25:24;10.63;;;6.05;;
70228;SDS011;57617;51.988;5.854;2023-07-29T04:27:50;10.43;;;6.53;;
70228;SDS011;57617;51.988;5.854;2023-07-29T04:30:15;9.35;;;5.30;;
70228;SDS011;57617;51.988;5.854;2023-07-29T04:32:40;12.07;;;5.72;;
70228;SDS011;57617;51.988;5.854;2023-07-29T04:35:07;9.25;;;5.45;;
70228;SDS011;57617;51.988;5.854;2023-07-29T04:37:33;8.98;;;5.13;;
70228;SDS011;57617;51.988;5.854;2023-07-29T04:39:59;9.13;;;5.28;;
70228;SDS011;57617;51.988;5.854;2023-07-29T04:42:24;9.50;;;5.05;;
70228;SDS011;57617;51.988;5.854;2023-07-29T04:44:49;10.90;;;5.35;;
70228;SDS011;57617;51.988;5.854;2023-07-29T04:47:14;9.93;;;4.93;;
70228;SDS011;57617;51.988;5.854;2023-07-29T04:49:40;8.32;;;4.78;;
70228;SDS011;57617;51.988;5.854;2023-07-29T04:52:05;8.95;;;4.72;;
70228;SDS011;57617;51.988;5.854;2023-07-29T04:54:31;7.07;;;4.63;;
70228;SDS011;57617;51.988;5.854;2023-07-29T04:56:56;7.35;;;4.60;;
70228;SDS011;57617;51.988;5.854;2023-07-29T04:59:21;9.73;;;4.60;;
70228;SDS011;57617;51.988;5.854;2023-07-29T05:01:47;11.10;;;4.55;;
70228;SDS011;57617;51.988;5.854;2023-07-29T05:04:12;9.80;;;4.70;;
70228;SDS011;57617;51.988;5.854;2023-07-29T05:06:37;10.52;;;4.85;;
70228;SDS011;57617;51.988;5.854;2023-07-29T05:09:12;7.25;;;4.35;;
70228;SDS011;57617;51.988;5.854;2023-07-29T05:11:39;10.15;;;4.35;;
70228;SDS011;57617;51.988;5.854;2023-07-29T05:14:04;6.95;;;4.00;;
70228;SDS011;57617;51.988;5.854;2023-07-29T05:16:31;6.72;;;4.13;;
70228;SDS011;57617;51.988;5.854;2023-07-29T05:18:56;6.60;;;4.00;;
70228;SDS011;57617;51.988;5.854;2023-07-29T05:21:21;6.40;;;3.80;;
70228;SDS011;57617;51.988;5.854;2023-07-29T05:23:47;6.70;;;3.92;;
70228;SDS011;57617;51.988;5.854;2023-07-29T05:26:12;5.57;;;3.40;;
70228;SDS011;57617;51.988;5.854;2023-07-29T05:28:37;11.80;;;4.10;;
70228;SDS011;57617;51.988;5.854;2023-07-29T05:31:03;8.82;;;4.18;;
70228;SDS011;57617;51.988;5.854;2023-07-29T05:33:28;6.70;;;3.65;;
70228;SDS011;57617;51.988;5.854;2023-07-29T05:35:54;5.47;;;3.17;;
70228;SDS011;57617;51.988;5.854;2023-07-29T05:38:19;6.78;;;3.75;;
70228;SDS011;57617;51.988;5.854;2023-07-29T05:40:45;13.27;;;3.60;;
70228;SDS011;57617;51.988;5.854;2023-07-29T05:43:10;6.38;;;3.58;;
70228;SDS011;57617;51.988;5.854;2023-07-29T05:45:35;8.48;;;3.40;;
70228;SDS011;57617;51.988;5.854;2023-07-29T05:48:01;7.47;;;3.60;;
70228;SDS011;57617;51.988;5.854;2023-07-29T05:50:26;6.32;;;3.50;;
70228;SDS011;57617;51.988;5.854;2023-07-29T05:52:51;6.82;;;3.55;;
70228;SDS011;57617;51.988;5.854;2023-07-29T05:55:17;7.05;;;3.75;;
70228;SDS011;57617;51.988;5.854;2023-07-29T05:57:42;7.35;;;3.88;;
70228;SDS011;57617;51.988;5.854;2023-07-29T06:00:07;7.05;;;3.65;;
70228;SDS011;57617;51.988;5.854;2023-07-29T06:02:33;7.30;;;3.80;;
70228;SDS011;57617;51.988;5.854;2023-07-29T06:04:59;7.53;;;4.13;;
70228;SDS011;57617;51.988;5.854;2023-07-29T06:07:25;6.07;;;3.80;;
70228;SDS011;57617;51.988;5.854;2023-07-29T06:09:54;9.05;;;4.45;;
70228;SDS011;57617;51.988;5.854;2023-07-29T06:12:20;7.05;;;4.40;;
70228;SDS011;57617;51.988;5.854;2023-07-29T06:14:45;10.95;;;3.97;;
70228;SDS011;57617;51.988;5.854;2023-07-29T06:17:10;7.93;;;4.25;;
70228;SDS011;57617;51.988;5.854;2023-07-29T06:19:36;10.02;;;4.60;;
70228;SDS011;57617;51.988;5.854;2023-07-29T06:22:01;10.27;;;4.97;;
70228;SDS011;57617;51.988;5.854;2023-07-29T06:24:27;10.60;;;4.50;;
70228;SDS011;57617;51.988;5.854;2023-07-29T06:26:53;9.43;;;4.40;;
70228;SDS011;57617;51.988;5.854;2023-07-29T06:29:18;8.32;;;4.43;;
70228;SDS011;57617;51.988;5.854;2023-07-29T06:31:43;11.30;;;4.75;;
70228;SDS011;57617;51.988;5.854;2023-07-29T06:34:08;8.55;;;4.65;;
70228;SDS011;57617;51.988;5.854;2023-07-29T06:36:34;9.70;;;4.63;;
70228;SDS011;57617;51.988;5.854;2023-07-29T06:38:59;8.82;;;5.07;;
70228;SDS011;57617;51.988;5.854;2023-07-29T06:41:24;9.57;;;4.85;;
70228;SDS011;57617;51.988;5.854;2023-07-29T06:43:50;12.38;;;5.07;;
70228;SDS011;57617;51.988;5.854;2023-07-29T06:46:15;10.18;;;5.10;;
70228;SDS011;57617;51.988;5.854;2023-07-29T06:48:40;9.90;;;5.05;;
70228;SDS011;57617;51.988;5.854;2023-07-29T06:51:06;12.27;;;4.82;;
70228;SDS011;57617;51.988;5.854;2023-07-29T06:53:31;11.48;;;5.18;;
70228;SDS011;57617;51.988;5.854;2023-07-29T06:55:56;12.90;;;5.18;;
70228;SDS011;57617;51.988;5.854;2023-07-29T06:58:22;10.18;;;5.57;;
70228;SDS011;57617;51.988;5.854;2023-07-29T07:00:47;12.05;;;5.30;;
70228;SDS011;57617;51.988;5.854;2023-07-29T07:03:12;10.70;;;5.63;;
70228;SDS011;57617;51.988;5.854;2023-07-29T07:05:38;11.48;;;5.78;;
70228;SDS011;57617;51.988;5.854;2023-07-29T07:08:03;10.38;;;5.43;;
70228;SDS011;57617;51.988;5.854;2023-07-29T07:10:29;11.02;;;5.72;;
70228;SDS011;57617;51.988;5.854;2023-07-29T07:12:54;13.20;;;5.32;;
70228;SDS011;57617;51.988;5.854;2023-07-29T07:15:19;10.10;;;5.03;;
70228;SDS011;57617;51.988;5.854;2023-07-29T07:17:44;13.63;;;5.30;;
70228;SDS011;57617;51.988;5.854;2023-07-29T07:20:10;12.50;;;5.47;;
70228;SDS011;57617;51.988;5.854;2023-07-29T07:22:36;10.35;;;5.63;;
70228;SDS011;57617;51.988;5.854;2023-07-29T07:25:01;11.65;;;6.28;;
70228;SDS011;57617;51.988;5.854;2023-07-29T07:27:27;11.75;;;6.43;;
70228;SDS011;57617;51.988;5.854;2023-07-29T07:29:52;10.88;;;6.00;;
70228;SDS011;57617;51.988;5.854;2023-07-29T07:32:17;11.18;;;6.10;;
70228;SDS011;57617;51.988;5.854;2023-07-29T07:34:43;10.13;;;6.60;;
70228;SDS011;57617;51.988;5.854;2023-07-29T07:37:08;11.02;;;6.65;;
70228;SDS011;57617;51.988;5.854;2023-07-29T07:39:33;14.18;;;6.80;;
70228;SDS011;57617;51.988;5.854;2023-07-29T07:41:59;10.32;;;7.00;;
70228;SDS011;57617;51.988;5.854;2023-07-29T07:44:24;11.25;;;6.72;;
70228;SDS011;57617;51.988;5.854;2023-07-29T07:46:51;9.98;;;6.82;;
70228;SDS011;57617;51.988;5.854;2023-07-29T07:49:17;12.45;;;6.75;;
70228;SDS011;57617;51.988;5.854;2023-07-29T07:51:43;10.85;;;6.80;;
70228;SDS011;57617;51.988;5.854;2023-07-29T07:54:08;10.63;;;6.43;;
70228;SDS011;57617;51.988;5.854;2023-07-29T07:56:34;11.13;;;7.65;;
70228;SDS011;57617;51.988;5.854;2023-07-29T07:58:59;11.10;;;7.18;;
70228;SDS011;57617;51.988;5.854;2023-07-29T08:01:24;10.90;;;7.18;;
70228;SDS011;57617;51.988;5.854;2023-07-29T08:03:50;13.80;;;7.28;;
70228;SDS011;57617;51.988;5.854;2023-07-29T08:06:15;12.63;;;6.60;;
70228;SDS011;57617;51.988;5.854;2023-07-29T08:08:40;13.82;;;7.40;;
70228;SDS011;57617;51.988;5.854;2023-07-29T08:11:06;10.65;;;6.90;;
70228;SDS011;57617;51.988;5.854;2023-07-29T08:13:31;11.27;;;6.68;;
70228;SDS011;57617;51.988;5.854;2023-07-29T08:15:56;9.85;;;6.18;;
70228;SDS011;57617;51.988;5.854;2023-07-29T08:18:22;12.00;;;6.72;;
70228;SDS011;57617;51.988;5.854;2023-07-29T08:20:57;9.15;;;6.50;;
70228;SDS011;57617;51.988;5.854;2023-07-29T08:23:24;9.02;;;6.60;;
70228;SDS011;57617;51.988;5.854;2023-07-29T08:25:54;13.68;;;6.82;;
70228;SDS011;57617;51.988;5.854;2023-07-29T08:28:21;12.18;;;6.88;;
70228;SDS011;57617;51.988;5.854;2023-07-29T08:30:47;10.23;;;6.40;;
70228;SDS011;57617;51.988;5.854;2023-07-29T08:33:13;9.70;;;5.90;;
70228;SDS011;57617;51.988;5.854;2023-07-29T08:35:38;11.25;;;6.38;;
70228;SDS011;57617;51.988;5.854;2023-07-29T08:38:04;9.43;;;5.88;;
70228;SDS011;57617;51.988;5.854;2023-07-29T08:40:29;9.93;;;5.40;;
70228;SDS011;57617;51.988;5.854;2023-07-29T08:42:56;7.50;;;5.47;;
70228;SDS011;57617;51.988;5.854;2023-07-29T08:45:23;8.68;;;5.88;;
70228;SDS011;57617;51.988;5.854;2023-07-29T08:47:50;9.25;;;5.78;;
70228;SDS011;57617;51.988;5.854;2023-07-29T08:50:19;9.30;;;5.32;;
70228;SDS011;57617;51.988;5.854;2023-07-29T08:52:46;10.38;;;5.20;;
70228;SDS011;57617;51.988;5.854;2023-07-29T08:55:13;8.23;;;4.88;;
70228;SDS011;57617;51.988;5.854;2023-07-29T08:57:39;8.82;;;4.88;;
70228;SDS011;57617;51.988;5.854;2023-07-29T09:00:04;6.13;;;4.88;;
70228;SDS011;57617;51.988;5.854;2023-07-29T09:02:30;6.93;;;4.70;;
70228;SDS011;57617;51.988;5.854;2023-07-29T09:04:55;8.55;;;4.57;;
70228;SDS011;57617;51.988;5.854;2023-07-29T09:07:21;6.88;;;4.30;;
70228;SDS011;57617;51.988;5.854;2023-07-29T09:09:46;8.20;;;4.43;;
70228;SDS011;57617;51.988;5.854;2023-07-29T09:12:12;11.15;;;4.63;;
70228;SDS011;57617;51.988;5.854;2023-07-29T09:14:37;5.72;;;4.40;;
70228;SDS011;57617;51.988;5.854;2023-07-29T09:17:02;7.90;;;4.13;;
70228;SDS011;57617;51.988;5.854;2023-07-29T09:19:32;8.55;;;4.63;;
70228;SDS011;57617;51.988;5.854;2023-07-29T09:21:58;8.15;;;4.70;;
70228;SDS011;57617;51.988;5.854;2023-07-29T09:24:23;5.78;;;4.40;;
70228;SDS011;57617;51.988;5.854;2023-07-29T09:26:49;6.65;;;4.63;;
70228;SDS011;57617;51.988;5.854;2023-07-29T09:29:16;7.20;;;4.30;;
70228;SDS011;57617;51.988;5.854;2023-07-29T09:31:46;6.15;;;4.00;;
70228;SDS011;57617;51.988;5.854;2023-07-29T09:34:12;5.70;;;3.95;;
70228;SDS011;57617;51.988;5.854;2023-07-29T09:36:40;9.38;;;3.88;;
70228;SDS011;57617;51.988;5.854;2023-07-29T09:39:10;7.10;;;3.63;;
70228;SDS011;57617;51.988;5.854;2023-07-29T09:41:37;4.20;;;3.40;;
70228;SDS011;57617;51.988;5.854;2023-07-29T09:44:03;15.40;;;3.72;;
70228;SDS011;57617;51.988;5.854;2023-07-29T09:46:36;5.80;;;3.17;;
70228;SDS011;57617;51.988;5.854;2023-07-29T09:49:05;4.38;;;2.90;;
70228;SDS011;57617;51.988;5.854;2023-07-29T09:51:31;5.88;;;2.65;;
70228;SDS011;57617;51.988;5.854;2023-07-29T09:54:02;5.57;;;2.20;;
70228;SDS011;57617;51.988;5.854;2023-07-29T09:56:29;4.60;;;2.13;;
70228;SDS011;57617;51.988;5.854;2023-07-29T09:58:57;5.95;;;1.98;;
70228;SDS011;57617;51.988;5.854;2023-07-29T10:01:23;4.28;;;2.00;;
70228;SDS011;57617;51.988;5.854;2023-07-29T10:03:49;4.07;;;1.77;;
70228;SDS011;57617;51.988;5.854;2023-07-29T10:06:15;4.68;;;2.08;;
70228;SDS011;57617;51.988;5.854;2023-07-29T10:08:40;5.90;;;2.38;;
70228;SDS011;57617;51.988;5.854;2023-07-29T10:11:07;4.72;;;2.70;;
70228;SDS011;57617;51.988;5.854;2023-07-29T10:13:34;3.13;;;2.10;;
70228;SDS011;57617;51.988;5.854;2023-07-29T10:16:00;4.82;;;2.60;;
70228;SDS011;57617;51.988;5.854;2023-07-29T10:18:28;4.60;;;2.28;;
70228;SDS011;57617;51.988;5.854;2023-07-29T10:20:56;6.28;;;2.13;;
70228;SDS011;57617;51.988;5.854;2023-07-29T10:23:23;4.35;;;2.25;;
70228;SDS011;57617;51.988;5.854;2023-07-29T10:25:54;6.65;;;2.40;;
70228;SDS011;57617;51.988;5.854;2023-07-29T10:28:25;3.50;;;2.08;;
70228;SDS011;57617;51.988;5.854;2023-07-29T10:30:54;5.32;;;2.13;;
70228;SDS011;57617;51.988;5.854;2023-07-29T10:33:21;3.50;;;2.05;;
70228;SDS011;57617;51.988;5.854;2023-07-29T10:35:46;3.25;;;2.00;;
70228;SDS011;57617;51.988;5.854;2023-07-29T10:38:12;2.35;;;1.75;;
70228;SDS011;57617;51.988;5.854;2023-07-29T10:40:47;3.55;;;2.00;;
70228;SDS011;57617;51.988;5.854;2023-07-29T10:43:20;3.97;;;2.22;;
70228;SDS011;57617;51.988;5.854;2023-07-29T10:45:52;4.15;;;2.03;;
70228;SDS011;57617;51.988;5.854;2023-07-29T10:54:01;6.13;;;4.13;;
70228;SDS011;57617;51.988;5.854;2023-07-29T10:56:48;5.10;;;3.90;;
70228;SDS011;57617;51.988;5.854;2023-07-29T11:01:42;5.32;;;3.70;;
70228;SDS011;57617;51.988;5.854;2023-07-29T11:17:59;8.00;;;3.75;;
70228;SDS011;57617;51.988;5.854;2023-07-29T11:20:27;5.03;;;3.67;;
70228;SDS011;57617;51.988;5.854;2023-07-29T11:22:54;5.60;;;3.80;;
70228;SDS011;57617;51.988;5.854;2023-07-29T11:25:22;7.68;;;3.80;;
70228;SDS011;57617;51.988;5.854;2023-07-29T11:27:48;6.65;;;3.78;;
70228;SDS011;57617;51.988;5.854;2023-07-29T11:30:15;4.50;;;3.78;;
70228;SDS011;57617;51.988;5.854;2023-07-29T11:32:42;5.82;;;3.75;;
70228;SDS011;57617;51.988;5.854;2023-07-29T11:35:10;4.38;;;3.35;;
70228;SDS011;57617;51.988;5.854;2023-07-29T11:37:38;4.68;;;3.60;;
70228;SDS011;57617;51.988;5.854;2023-07-29T11:40:04;6.00;;;3.40;;
70228;SDS011;57617;51.988;5.854;2023-07-29T11:42:32;6.35;;;3.20;;
70228;SDS011;57617;51.988;5.854;2023-07-29T11:44:58;5.10;;;3.20;;
70228;SDS011;57617;51.988;5.854;2023-07-29T11:47:24;4.70;;;3.55;;
70228;SDS011;57617;51.988;5.854;2023-07-29T11:49:50;3.65;;;3.00;;
70228;SDS011;57617;51.988;5.854;2023-07-29T11:52:15;5.38;;;2.90;;
70228;SDS011;57617;51.988;5.854;2023-07-29T11:54:44;4.47;;;3.00;;
70228;SDS011;57617;51.988;5.854;2023-07-29T11:57:10;4.43;;;2.85;;
70228;SDS011;57617;51.988;5.854;2023-07-29T11:59:36;7.03;;;3.25;;
70228;SDS011;57617;51.988;5.854;2023-07-29T12:02:37;6.22;;;3.40;;
70228;SDS011;57617;51.988;5.854;2023-07-29T12:04:55;6.47;;;2.95;;
70228;SDS011;57617;51.988;5.854;2023-07-29T12:07:22;5.00;;;3.17;;
70228;SDS011;57617;51.988;5.854;2023-07-29T12:09:48;4.35;;;3.38;;
70228;SDS011;57617;51.988;5.854;2023-07-29T12:12:15;5.25;;;3.30;;
70228;SDS011;57617;51.988;5.854;2023-07-29T12:14:43;5.22;;;3.58;;
70228;SDS011;57617;51.988;5.854;2023-07-29T12:17:10;7.90;;;3.65;;
70228;SDS011;57617;51.988;5.854;2023-07-29T12:19:36;8.18;;;3.80;;
70228;SDS011;57617;51.988;5.854;2023-07-29T12:22:03;6.55;;;3.42;;
70228;SDS011;57617;51.988;5.854;2023-07-29T12:24:30;6.15;;;3.38;;
70228;SDS011;57617;51.988;5.854;2023-07-29T12:26:56;6.78;;;3.22;;
70228;SDS011;57617;51.988;5.854;2023-07-29T12:29:22;4.68;;;3.50;;
70228;SDS011;57617;51.988;5.854;2023-07-29T12:31:47;4.95;;;2.95;;
70228;SDS011;57617;51.988;5.854;2023-07-29T12:34:20;3.63;;;2.30;;
70228;SDS011;57617;51.988;5.854;2023-07-29T12:36:47;6.18;;;2.42;;
70228;SDS011;57617;51.988;5.854;2023-07-29T12:39:20;3.53;;;2.08;;
70228;SDS011;57617;51.988;5.854;2023-07-29T12:41:48;4.10;;;2.70;;
70228;SDS011;57617;51.988;5.854;2023-07-29T12:44:15;3.35;;;2.25;;
70228;SDS011;57617;51.988;5.854;2023-07-29T12:46:40;3.00;;;2.10;;
70228;SDS011;57617;51.988;5.854;2023-07-29T12:49:06;6.07;;;1.98;;
70228;SDS011;57617;51.988;5.854;2023-07-29T12:51:31;3.75;;;2.13;;
70228;SDS011;57617;51.988;5.854;2023-07-29T12:53:57;3.90;;;2.13;;
70228;SDS011;57617;51.988;5.854;2023-07-29T12:56:22;4.53;;;2.13;;
70228;SDS011;57617;51.988;5.854;2023-07-29T12:58:48;3.28;;;2.03;;
70228;SDS011;57617;51.988;5.854;2023-07-29T13:01:13;3.95;;;1.90;;
70228;SDS011;57617;51.988;5.854;2023-07-29T13:03:45;3.80;;;2.30;;
70228;SDS011;57617;51.988;5.854;2023-07-29T13:06:11;7.20;;;2.83;;
70228;SDS011;57617;51.988;5.854;2023-07-29T13:08:36;4.70;;;2.92;;
70228;SDS011;57617;51.988;5.854;2023-07-29T13:11:02;4.03;;;3.13;;
70228;SDS011;57617;51.988;5.854;2023-07-29T13:13:28;5.07;;;3.70;;
70228;SDS011;57617;51.988;5.854;2023-07-29T13:15:53;4.97;;;3.50;;
70228;SDS011;57617;51.988;5.854;2023-07-29T13:18:19;5.30;;;3.55;;
70228;SDS011;57617;51.988;5.854;2023-07-29T13:20:44;5.03;;;3.90;;
70228;SDS011;57617;51.988;5.854;2023-07-29T13:23:09;6.20;;;4.60;;
70228;SDS011;57617;51.988;5.854;2023-07-29T13:25:35;5.93;;;4.70;;
70228;SDS011;57617;51.988;5.854;2023-07-29T13:28:00;7.63;;;5.03;;
70228;SDS011;57617;51.988;5.854;2023-07-29T13:30:25;7.28;;;5.30;;
70228;SDS011;57617;51.988;5.854;2023-07-29T13:32:51;6.68;;;5.45;;
70228;SDS011;57617;51.988;5.854;2023-07-29T13:35:16;8.63;;;5.40;;
70228;SDS011;57617;51.988;5.854;2023-07-29T13:37:41;7.05;;;5.28;;
70228;SDS011;57617;51.988;5.854;2023-07-29T13:40:07;6.82;;;5.43;;
70228;SDS011;57617;51.988;5.854;2023-07-29T13:42:32;7.38;;;5.75;;
70228;SDS011;57617;51.988;5.854;2023-07-29T13:44:57;6.38;;;5.70;;
70228;SDS011;57617;51.988;5.854;2023-07-29T13:47:23;7.72;;;6.00;;
70228;SDS011;57617;51.988;5.854;2023-07-29T13:49:48;8.40;;;5.93;;
70228;SDS011;57617;51.988;5.854;2023-07-29T13:52:13;8.25;;;6.03;;
70228;SDS011;57617;51.988;5.854;2023-07-29T13:54:39;7.38;;;5.57;;
70228;SDS011;57617;51.988;5.854;2023-07-29T13:57:04;7.35;;;5.28;;
70228;SDS011;57617;51.988;5.854;2023-07-29T13:59:31;8.02;;;4.85;;
70228;SDS011;57617;51.988;5.854;2023-07-29T14:01:57;7.82;;;6.13;;
70228;SDS011;57617;51.988;5.854;2023-07-29T14:04:23;7.80;;;5.50;;
70228;SDS011;57617;51.988;5.854;2023-07-29T14:06:48;7.30;;;5.70;;
70228;SDS011;57617;51.988;5.854;2023-07-29T14:09:13;8.48;;;6.00;;
70228;SDS011;57617;51.988;5.854;2023-07-29T14:11:39;6.10;;;4.95;;
70228;SDS011;57617;51.988;5.854;2023-07-29T14:14:04;5.75;;;4.90;;
70228;SDS011;57617;51.988;5.854;2023-07-29T14:16:29;9.02;;;5.28;;
70228;SDS011;57617;51.988;5.854;2023-07-29T14:18:54;6.70;;;5.22;;
70228;SDS011;57617;51.988;5.854;2023-07-29T14:21:20;7.65;;;5.47;;
70228;SDS011;57617;51.988;5.854;2023-07-29T14:23:45;7.35;;;5.57;;
70228;SDS011;57617;51.988;5.854;2023-07-29T14:26:10;6.18;;;4.97;;
70228;SDS011;57617;51.988;5.854;2023-07-29T14:28:36;6.15;;;5.35;;
70228;SDS011;57617;51.988;5.854;2023-07-29T14:31:02;6.22;;;5.05;;
70228;SDS011;57617;51.988;5.854;2023-07-29T14:33:27;5.72;;;4.57;;
70228;SDS011;57617;51.988;5.854;2023-07-29T14:35:53;5.00;;;4.22;;
70228;SDS011;57617;51.988;5.854;2023-07-29T14:38:18;5.13;;;3.80;;
70228;SDS011;57617;51.988;5.854;2023-07-29T14:40:43;4.55;;;3.88;;
70228;SDS011;57617;51.988;5.854;2023-07-29T14:43:09;5.97;;;3.67;;
70228;SDS011;57617;51.988;5.854;2023-07-29T14:45:34;5.45;;;4.00;;
70228;SDS011;57617;51.988;5.854;2023-07-29T14:47:59;5.13;;;4.00;;
70228;SDS011;57617;51.988;5.854;2023-07-29T14:50:25;5.55;;;3.70;;
70228;SDS011;57617;51.988;5.854;2023-07-29T14:52:50;6.05;;;3.50;;
70228;SDS011;57617;51.988;5.854;2023-07-29T14:55:15;5.97;;;3.22;;
70228;SDS011;57617;51.988;5.854;2023-07-29T14:57:41;3.72;;;2.78;;
70228;SDS011;57617;51.988;5.854;2023-07-29T15:00:06;3.63;;;2.88;;
70228;SDS011;57617;51.988;5.854;2023-07-29T15:02:32;5.90;;;2.83;;